Terminal Aerodrome Forecast
Issued by NWS Lake Charles, LA

Home | Current Version | Previous Version | Text Only | Print | Product List | Glossary On
Versions: 1 2 3 4 5 6 7 8 9 10 11 12 13 14 15 16 17 18 19 20
000
FTUS44 KLCH 182345
TAFLCH
TAF
KLCH 182345Z 1900/1924 21005KT P6SM VCSH SCT015 OVC250
      TEMPO 1906/1909 3SM BR
     FM190900 20004KT 3SM BR SCT005
      TEMPO 1910/1914 1SM BR OVC005
     FM191500 22010KT P6SM SCT015=

USA.gov is the U.S. government's official web portal to all federal, state and local government web resources and services.